Time;durP1;ratioP1;P1;durP2;ratioP2;P2;SDS_P1;SDS_P2;PMS_P1;PMS_P2;Temp;Humidity;BMP_temperature;BMP_pressure;BME280_temperature;BME280_humidity;BME280_pressure;Samples;Min_cycle;Max_cycle;Signal;HPM_P1;HPM_P2
2021/09/14 00:00:18;;;;;;;11.38;5.85;;;15.40;99.90;;;;;;5037735;28;20669;-74
2021/09/14 00:02:45;;;;;;;10.38;5.82;;;15.40;99.90;;;;;;5037786;28;20058;-74
2021/09/14 00:05:12;;;;;;;10.07;5.60;;;15.40;99.90;;;;;;5036930;28;20440;-74
2021/09/14 00:07:39;;;;;;;11.75;5.93;;;15.40;99.90;;;;;;5037368;28;20048;-73
2021/09/14 00:10:07;;;;;;;13.75;6.63;;;15.40;99.90;;;;;;5037057;28;20117;-74
2021/09/14 00:12:36;;;;;;;10.05;6.20;;;15.40;99.90;;;;;;5037787;28;20052;-74
2021/09/14 00:15:04;;;;;;;11.10;6.10;;;15.20;99.90;;;;;;5036001;28;20053;-73
2021/09/14 00:17:31;;;;;;;10.90;6.32;;;15.20;99.90;;;;;;5037395;28;20048;-73
2021/09/14 00:19:58;;;;;;;9.88;6.13;;;15.20;99.90;;;;;;5036084;28;20049;-74
2021/09/14 00:22:25;;;;;;;9.40;5.55;;;15.20;99.90;;;;;;5035837;28;20068;-74
2021/09/14 00:24:52;;;;;;;10.77;6.40;;;15.20;99.90;;;;;;5036180;28;20091;-74
2021/09/14 00:27:19;;;;;;;16.30;6.53;;;15.10;99.90;;;;;;5035234;28;20080;-74
2021/09/14 00:29:48;;;;;;;10.30;5.65;;;15.10;99.90;;;;;;5034226;28;20064;-74
2021/09/14 00:32:15;;;;;;;13.70;6.53;;;15.20;99.90;;;;;;5036798;28;20048;-73
2021/09/14 00:34:42;;;;;;;10.60;6.72;;;15.20;99.90;;;;;;5034938;28;20053;-73
2021/09/14 00:37:09;;;;;;;9.98;6.20;;;15.20;99.90;;;;;;5032333;28;20124;-73
2021/09/14 00:39:37;;;;;;;11.75;6.43;;;15.00;99.90;;;;;;5040177;28;20060;-73
2021/09/14 00:42:04;;;;;;;10.73;6.20;;;14.70;99.90;;;;;;5041865;28;20501;-73
2021/09/14 00:44:32;;;;;;;11.50;6.38;;;14.90;99.90;;;;;;5042458;28;20052;-73
2021/09/14 00:47:00;;;;;;;8.38;5.40;;;15.00;99.90;;;;;;5043043;28;20048;-73
2021/09/14 00:49:27;;;;;;;10.65;5.43;;;14.80;99.90;;;;;;5041097;28;20123;-73
2021/09/14 00:51:54;;;;;;;11.10;5.93;;;14.80;99.90;;;;;;5043218;28;20133;-73
2021/09/14 00:54:21;;;;;;;12.32;6.18;;;14.70;99.90;;;;;;5041990;28;20123;-72
2021/09/14 00:56:49;;;;;;;10.95;6.22;;;14.80;99.90;;;;;;5042488;28;20087;-73
2021/09/14 00:59:16;;;;;;;13.85;6.97;;;14.90;99.90;;;;;;5041681;28;20095;-73
2021/09/14 01:01:43;;;;;;;9.27;6.05;;;14.80;99.90;;;;;;5042509;28;20132;-72
2021/09/14 01:04:11;;;;;;;13.07;7.05;;;14.90;99.90;;;;;;5040283;28;20045;-73
2021/09/14 01:06:38;;;;;;;12.23;6.40;;;14.80;99.90;;;;;;5039764;28;20178;-73
2021/09/14 01:09:06;;;;;;;9.98;6.07;;;14.80;99.90;;;;;;5037713;28;20080;-73
2021/09/14 01:11:33;;;;;;;11.82;6.50;;;14.90;99.90;;;;;;5035144;28;21407;-72
2021/09/14 01:14:05;;;;;;;11.38;5.78;;;14.80;99.90;;;;;;5031341;28;20499;-72
2021/09/14 01:16:33;;;;;;;12.77;7.20;;;14.60;99.90;;;;;;5036088;28;20105;-72
2021/09/14 01:19:01;;;;;;;12.65;6.22;;;14.70;99.90;;;;;;5037293;28;20088;-73
2021/09/14 01:21:30;;;;;;;14.90;7.00;;;14.70;99.90;;;;;;5040255;28;20091;-73
2021/09/14 01:23:59;;;;;;;10.90;6.45;;;14.60;99.90;;;;;;5038798;28;20570;-73
2021/09/14 01:26:27;;;;;;;10.23;6.53;;;14.60;99.90;;;;;;5035119;28;20161;-74
2021/09/14 01:30:12;;;;;;;10.93;6.57;;;14.60;99.90;;;;;;5037002;28;20044;-73
2021/09/14 01:32:24;;;;;;;11.98;6.72;;;14.70;99.90;;;;;;5034913;28;20440;-73
2021/09/14 01:34:51;;;;;;;13.20;7.32;;;14.60;99.90;;;;;;5043343;28;20055;-73
2021/09/14 01:37:18;;;;;;;11.80;6.65;;;14.60;99.90;;;;;;5042557;28;20056;-73
2021/09/14 01:39:50;;;;;;;11.07;6.40;;;14.60;99.90;;;;;;5044947;28;20080;-73
2021/09/14 01:42:17;;;;;;;9.80;6.80;;;14.70;99.90;;;;;;5045899;28;20578;-73
2021/09/14 01:44:44;;;;;;;11.40;6.95;;;14.70;99.90;;;;;;5041876;28;20167;-73
2021/09/14 01:47:11;;;;;;;10.82;6.60;;;14.80;99.90;;;;;;5037326;28;20110;-73
2021/09/14 01:49:38;;;;;;;10.93;7.00;;;14.70;99.90;;;;;;5038348;28;20080;-73
2021/09/14 01:52:06;;;;;;;10.15;6.88;;;14.70;99.90;;;;;;5034567;28;20123;-73
2021/09/14 01:54:33;;;;;;;11.55;7.18;;;14.50;99.90;;;;;;5042489;28;20439;-73
2021/09/14 01:57:01;;;;;;;11.35;7.22;;;14.50;99.90;;;;;;5039415;28;21074;-73
2021/09/14 01:59:30;;;;;;;9.80;6.70;;;14.40;99.90;;;;;;5042882;28;20177;-73
2021/09/14 02:02:02;;;;;;;13.02;6.47;;;14.50;99.90;;;;;;5041838;28;20146;-74
2021/09/14 02:04:43;;;;;;;12.68;7.25;;;14.40;99.90;;;;;;5042916;28;20125;-73
2021/09/14 02:23:58;;;;;;;12.15;7.53;;;14.30;99.90;;;;;;5044326;28;20534;-73
2021/09/14 02:59:42;;;;;;;11.65;7.57;;;14.00;99.90;;;;;;5015751;28;20045;-73
2021/09/14 03:02:11;;;;;;;10.95;7.30;;;14.00;99.90;;;;;;5036629;28;20122;-73
2021/09/14 03:04:38;;;;;;;12.95;7.20;;;14.00;99.90;;;;;;5038102;28;20472;-73
2021/09/14 03:07:05;;;;;;;12.40;8.15;;;14.10;99.90;;;;;;5036078;28;20814;-73
2021/09/14 03:09:32;;;;;;;14.40;7.68;;;14.00;99.90;;;;;;5042292;28;20048;-73
2021/09/14 03:11:59;;;;;;;11.15;7.45;;;14.10;99.90;;;;;;5044216;28;20506;-73
2021/09/14 03:14:25;;;;;;;13.77;8.38;;;14.00;99.90;;;;;;5044917;28;20128;-73
2021/09/14 03:16:53;;;;;;;12.68;8.10;;;13.90;99.90;;;;;;5044398;28;20049;-73
2021/09/14 03:19:21;;;;;;;13.20;8.02;;;13.90;99.90;;;;;;5043813;28;20044;-73
2021/09/14 03:21:48;;;;;;;13.48;7.50;;;14.00;99.90;;;;;;5045018;28;20052;-75
2021/09/14 03:24:15;;;;;;;12.52;8.25;;;14.00;99.90;;;;;;5043751;28;20485;-74
2021/09/14 03:26:42;;;;;;;13.23;8.52;;;13.90;99.90;;;;;;5044833;28;20118;-74
2021/09/14 03:29:09;;;;;;;13.45;8.00;;;13.80;99.90;;;;;;5045787;28;20109;-74
2021/09/14 03:31:36;;;;;;;12.85;7.35;;;13.80;99.90;;;;;;5047970;28;20061;-73
2021/09/14 03:34:03;;;;;;;12.75;8.20;;;13.90;99.90;;;;;;5049124;28;20060;-73
2021/09/14 03:36:32;;;;;;;14.38;7.82;;;13.80;99.90;;;;;;5046983;28;20087;-73
2021/09/14 03:38:59;;;;;;;12.88;8.65;;;13.90;99.90;;;;;;5047009;28;20581;-73
2021/09/14 03:41:26;;;;;;;11.95;8.23;;;13.80;99.90;;;;;;5046971;28;20132;-73
2021/09/14 03:43:53;;;;;;;13.43;9.23;;;13.80;99.90;;;;;;5047794;28;20048;-73
2021/09/14 03:46:20;;;;;;;15.45;8.68;;;13.80;99.90;;;;;;5044953;28;20052;-73
2021/09/14 03:48:47;;;;;;;11.48;8.45;;;13.80;99.90;;;;;;5040580;28;20477;-73
2021/09/14 03:51:13;;;;;;;14.18;8.68;;;13.90;99.90;;;;;;5040595;28;20041;-74
2021/09/14 03:53:43;;;;;;;13.40;8.32;;;13.90;99.90;;;;;;5039831;28;20048;-73
2021/09/14 03:56:10;;;;;;;13.93;9.02;;;13.90;99.90;;;;;;5038500;28;20044;-73
2021/09/14 03:58:37;;;;;;;14.02;9.00;;;13.70;99.90;;;;;;5041547;28;20056;-73
2021/09/14 04:01:04;;;;;;;15.98;9.88;;;13.70;99.90;;;;;;5040142;28;20049;-73
2021/09/14 04:03:39;;;;;;;14.88;9.75;;;13.80;99.90;;;;;;5040661;28;20110;-74
2021/09/14 04:08:54;;;;;;;13.02;9.02;;;13.70;99.90;;;;;;5037975;28;20531;-73
2021/09/14 04:11:22;;;;;;;16.40;9.45;;;13.70;99.90;;;;;;5040718;28;20118;-74
2021/09/14 04:13:50;;;;;;;16.05;9.98;;;13.50;99.90;;;;;;5042201;28;20578;-74
2021/09/14 04:16:17;;;;;;;15.05;9.30;;;13.60;99.90;;;;;;5040619;28;20106;-74
2021/09/14 04:18:44;;;;;;;14.65;9.23;;;13.50;99.90;;;;;;5040717;28;20064;-74
2021/09/14 04:21:11;;;;;;;13.70;9.02;;;13.60;99.90;;;;;;5040642;28;20131;-74
2021/09/14 04:23:39;;;;;;;13.20;8.88;;;13.70;99.90;;;;;;5047514;28;20083;-73
2021/09/14 04:26:07;;;;;;;16.38;10.23;;;13.70;99.90;;;;;;5045845;28;20139;-73
2021/09/14 04:28:34;;;;;;;14.55;8.93;;;13.60;99.90;;;;;;5041684;28;20044;-73
2021/09/14 04:31:01;;;;;;;16.17;9.60;;;13.70;99.90;;;;;;5038773;28;20052;-73
2021/09/14 04:33:28;;;;;;;13.82;9.18;;;13.70;99.90;;;;;;5039305;28;20049;-73
2021/09/14 04:35:55;;;;;;;14.13;9.23;;;13.60;99.90;;;;;;5039266;28;20080;-74
2021/09/14 04:38:22;;;;;;;12.57;7.93;;;13.60;99.90;;;;;;5039993;28;20076;-73
2021/09/14 04:40:49;;;;;;;18.17;9.10;;;13.70;99.90;;;;;;5038825;28;20122;-73
2021/09/14 04:43:17;;;;;;;15.85;9.48;;;13.70;99.90;;;;;;5039231;28;20135;-73
2021/09/14 04:45:44;;;;;;;15.43;9.63;;;13.60;99.90;;;;;;5039964;28;20617;-74
2021/09/14 04:48:11;;;;;;;14.07;9.10;;;13.60;99.90;;;;;;5045768;28;20091;-73
2021/09/14 04:50:38;;;;;;;17.55;9.68;;;13.50;99.90;;;;;;5039039;28;20148;-73
2021/09/14 04:53:05;;;;;;;15.18;9.82;;;13.40;99.90;;;;;;5041784;28;20133;-73
2021/09/14 04:55:32;;;;;;;14.70;9.75;;;13.40;99.90;;;;;;5041535;28;20117;-73
2021/09/14 04:57:59;;;;;;;16.70;10.35;;;13.40;99.90;;;;;;5041228;28;20647;-73
2021/09/14 05:00:28;;;;;;;15.02;9.70;;;13.40;99.90;;;;;;5040728;28;20132;-73
2021/09/14 05:02:55;;;;;;;15.65;9.35;;;13.50;99.90;;;;;;5043840;28;20557;-73
2021/09/14 05:05:22;;;;;;;12.52;9.73;;;13.50;99.90;;;;;;5046090;28;20040;-74
2021/09/14 05:07:49;;;;;;;16.10;9.65;;;13.50;99.90;;;;;;5045497;28;20133;-73
2021/09/14 05:10:20;;;;;;;14.98;10.35;;;13.60;99.90;;;;;;5043079;28;20444;-72
2021/09/14 05:12:50;;;;;;;17.73;10.05;;;13.50;99.90;;;;;;5040821;28;20436;-72
2021/09/14 05:15:17;;;;;;;16.48;11.07;;;13.60;99.90;;;;;;5037371;28;20041;-73
2021/09/14 05:17:45;;;;;;;14.32;9.90;;;13.50;99.90;;;;;;5042580;28;20139;-74
2021/09/14 05:20:14;;;;;;;15.93;10.60;;;13.60;99.90;;;;;;5040312;28;21318;-73
2021/09/14 05:22:41;;;;;;;17.55;9.82;;;13.60;99.90;;;;;;5038314;28;20129;-73
2021/09/14 05:25:22;;;;;;;16.08;9.60;;;13.60;99.90;;;;;;5035311;28;20136;-73
2021/09/14 05:28:00;;;;;;;16.05;10.48;;;13.60;99.90;;;;;;5032064;28;20084;-73
2021/09/14 05:30:28;;;;;;;15.57;10.30;;;13.60;99.90;;;;;;5031622;28;20056;-73
2021/09/14 05:32:57;;;;;;;14.93;10.50;;;13.60;99.90;;;;;;5037817;28;20084;-73
2021/09/14 05:35:29;;;;;;;17.95;11.32;;;13.70;99.90;;;;;;5042417;28;20520;-73
2021/09/14 05:37:56;;;;;;;19.80;12.27;;;13.70;99.90;;;;;;5036139;28;20523;-74
2021/09/14 05:40:23;;;;;;;19.50;11.77;;;13.70;99.90;;;;;;5035166;28;20124;-74
2021/09/14 05:42:50;;;;;;;17.73;10.90;;;13.80;99.90;;;;;;5033611;28;20131;-73
2021/09/14 05:45:17;;;;;;;15.65;10.43;;;13.90;99.90;;;;;;5037199;28;20057;-73
2021/09/14 05:47:44;;;;;;;17.80;10.80;;;13.90;99.90;;;;;;5033506;28;20092;-73
2021/09/14 05:50:13;;;;;;;16.75;10.45;;;14.10;99.90;;;;;;5036013;28;20102;-73
2021/09/14 05:52:40;;;;;;;18.38;9.73;;;14.10;99.90;;;;;;5039760;28;20590;-73
2021/09/14 05:55:08;;;;;;;20.52;10.25;;;14.20;99.90;;;;;;5039493;28;20076;-74
2021/09/14 05:57:35;;;;;;;14.48;10.13;;;14.20;99.90;;;;;;5039591;28;20072;-73
2021/09/14 06:00:01;;;;;;;20.50;11.07;;;14.30;99.90;;;;;;5036640;28;20080;-74
2021/09/14 06:02:28;;;;;;;17.42;10.38;;;14.20;99.90;;;;;;5044302;28;20072;-73
2021/09/14 06:04:55;;;;;;;17.45;11.05;;;14.30;99.90;;;;;;5047241;28;20064;-73
2021/09/14 06:07:24;;;;;;;16.10;10.77;;;14.30;99.90;;;;;;5043249;28;20091;-74
2021/09/14 06:09:51;;;;;;;17.00;10.43;;;14.30;99.90;;;;;;5046798;28;20057;-74
2021/09/14 06:12:18;;;;;;;16.83;10.30;;;14.50;99.90;;;;;;5043615;28;20133;-73
2021/09/14 06:14:44;;;;;;;16.20;10.45;;;14.50;99.90;;;;;;5049356;28;20084;-74
2021/09/14 06:17:12;;;;;;;19.38;10.30;;;14.60;99.90;;;;;;5049077;28;20526;-73
2021/09/14 06:19:39;;;;;;;14.52;10.32;;;14.60;99.90;;;;;;5047710;28;20048;-73
2021/09/14 06:22:06;;;;;;;20.15;10.23;;;14.60;99.90;;;;;;5047617;28;20887;-74
2021/09/14 06:24:34;;;;;;;14.57;10.52;;;14.70;99.90;;;;;;5049116;28;20106;-73
2021/09/14 06:27:01;;;;;;;22.52;11.02;;;14.80;99.90;;;;;;5048411;28;20476;-73
2021/09/14 06:29:28;;;;;;;32.97;13.98;;;14.80;99.90;;;;;;5048086;28;20053;-73
2021/09/14 06:31:55;;;;;;;38.70;15.30;;;15.00;99.90;;;;;;5045852;28;20052;-73
2021/09/14 06:34:22;;;;;;;37.85;17.15;;;15.00;99.90;;;;;;5047533;28;20497;-73
2021/09/14 06:36:49;;;;;;;40.60;17.55;;;15.00;99.90;;;;;;5043076;28;20056;-73
2021/09/14 06:39:17;;;;;;;28.65;15.85;;;15.30;99.90;;;;;;5048274;28;20105;-73
2021/09/14 06:41:45;;;;;;;22.23;12.55;;;15.40;99.90;;;;;;5048039;28;20064;-74
2021/09/14 06:44:12;;;;;;;32.33;15.30;;;15.40;99.90;;;;;;5045377;28;20080;-73
2021/09/14 06:46:39;;;;;;;28.67;14.48;;;15.40;99.90;;;;;;5047330;28;20094;-74
2021/09/14 06:49:06;;;;;;;26.88;11.38;;;15.60;99.90;;;;;;5046980;28;20076;-74
2021/09/14 06:51:33;;;;;;;20.00;11.40;;;15.60;99.90;;;;;;5046989;28;20044;-73
2021/09/14 06:54:00;;;;;;;25.80;10.80;;;15.80;99.90;;;;;;5046730;28;20048;-73
2021/09/14 06:56:27;;;;;;;17.83;9.68;;;15.80;99.90;;;;;;5045530;28;20129;-74
2021/09/14 06:58:56;;;;;;;15.98;9.40;;;16.00;99.90;;;;;;5043563;28;20040;-73
2021/09/14 07:01:23;;;;;;;19.40;10.50;;;16.10;99.90;;;;;;5041078;28;20076;-74
2021/09/14 07:03:50;;;;;;;16.73;9.88;;;16.30;99.90;;;;;;5038587;28;20098;-74
2021/09/14 07:06:17;;;;;;;18.98;9.60;;;16.40;99.90;;;;;;5042626;28;20096;-73
2021/09/14 07:08:44;;;;;;;18.50;9.95;;;16.60;99.90;;;;;;5042005;28;20088;-73
2021/09/14 07:11:11;;;;;;;20.83;9.30;;;16.80;99.90;;;;;;5046158;28;20183;-73
2021/09/14 07:13:38;;;;;;;20.05;9.63;;;16.90;99.90;;;;;;5044650;28;20105;-74
2021/09/14 07:16:07;;;;;;;18.13;10.02;;;17.10;99.90;;;;;;5044723;28;20147;-74
2021/09/14 07:18:38;;;;;;;25.33;11.10;;;17.30;99.90;;;;;;5038801;28;20580;-73
2021/09/14 07:21:05;;;;;;;22.20;11.90;;;17.40;99.90;;;;;;5041558;28;20125;-74
2021/09/14 07:23:32;;;;;;;21.92;12.00;;;17.50;99.90;;;;;;5034706;28;20528;-74
2021/09/14 07:26:00;;;;;;;22.40;11.18;;;17.60;99.90;;;;;;5043448;28;20597;-74
2021/09/14 07:28:27;;;;;;;22.75;9.77;;;17.80;99.90;;;;;;5045754;28;20090;-73
2021/09/14 07:30:54;;;;;;;21.83;10.32;;;17.80;99.90;;;;;;5043587;28;20176;-73
2021/09/14 07:33:23;;;;;;;17.52;9.30;;;18.10;99.90;;;;;;5042317;28;20273;-74
2021/09/14 07:35:50;;;;;;;21.38;10.20;;;18.50;99.90;;;;;;5035670;28;20459;-74
2021/09/14 07:38:18;;;;;;;22.55;9.52;;;18.80;99.90;;;;;;5034488;28;20555;-75
2021/09/14 07:40:45;;;;;;;20.08;8.38;;;19.10;99.90;;;;;;5035268;28;20072;-74
2021/09/14 07:43:12;;;;;;;14.02;7.53;;;19.20;99.90;;;;;;5034840;28;20459;-74
2021/09/14 07:45:39;;;;;;;15.05;7.80;;;19.10;99.90;;;;;;5036413;28;20057;-74
2021/09/14 07:48:51;;;;;;;12.45;7.45;;;19.30;99.90;;;;;;5037894;28;20408;-74
2021/09/14 07:51:19;;;;;;;12.13;6.65;;;19.50;99.90;;;;;;4957713;28;20500;-74
2021/09/14 07:53:46;;;;;;;11.68;6.60;;;19.70;99.90;;;;;;4957367;28;20620;-74
2021/09/14 07:56:13;;;;;;;12.52;6.68;;;19.80;99.90;;;;;;4997886;28;20056;-74
2021/09/14 07:58:40;;;;;;;12.45;6.65;;;19.80;99.90;;;;;;5039481;28;20102;-74
2021/09/14 08:01:07;;;;;;;13.70;5.95;;;19.80;99.90;;;;;;5037972;28;20072;-74
2021/09/14 08:03:35;;;;;;;8.30;4.47;;;20.20;99.90;;;;;;5040546;28;20123;-74
2021/09/14 08:06:02;;;;;;;10.02;4.57;;;20.50;99.90;;;;;;5040720;28;21080;-74
2021/09/14 08:08:30;;;;;;;6.65;4.18;;;20.70;99.90;;;;;;5044777;28;20052;-74
2021/09/14 08:10:57;;;;;;;10.80;4.20;;;21.10;99.90;;;;;;5040244;28;20850;-73
2021/09/14 08:13:24;;;;;;;7.70;3.80;;;21.60;99.90;;;;;;5042158;28;20090;-74
2021/09/14 08:15:51;;;;;;;12.15;4.07;;;22.00;99.90;;;;;;5035356;28;20045;-74
2021/09/14 08:18:18;;;;;;;9.73;3.78;;;22.30;99.90;;;;;;5037903;28;20048;-74
2021/09/14 08:20:46;;;;;;;7.20;3.90;;;24.00;99.90;;;;;;5038946;28;20092;-74
2021/09/14 08:23:12;;;;;;;6.45;3.35;;;25.40;99.90;;;;;;5037567;28;20057;-74
2021/09/14 08:25:41;;;;;;;6.70;3.60;;;26.20;99.90;;;;;;5028803;28;20062;-73
2021/09/14 08:28:27;;;;;;;10.88;4.05;;;27.10;99.90;;;;;;5041894;28;20041;-74
2021/09/14 08:30:55;;;;;;;9.27;4.38;;;27.00;99.90;;;;;;5032210;28;20418;-75
2021/09/14 08:33:22;;;;;;;6.88;3.63;;;28.00;99.90;;;;;;5040012;28;20135;-75
2021/09/14 08:35:49;;;;;;;6.80;3.42;;;27.90;99.90;;;;;;5037127;28;20529;-74
2021/09/14 08:38:42;;;;;;;;;;;;;;;;;;;;;
2021/09/14 08:41:13;;;;;;;6.35;3.47;;;27.70;99.90;;;;;;5030618;28;20061;-74
2021/09/14 08:43:43;;;;;;;5.85;3.45;;;26.60;99.90;;;;;;5038200;28;20608;-74
2021/09/14 08:46:10;;;;;;;7.13;3.05;;;26.30;99.90;;;;;;5041738;28;20092;-74
2021/09/14 08:48:38;;;;;;;5.55;2.95;;;26.80;99.90;;;;;;5044094;28;20591;-74
2021/09/14 08:51:05;;;;;;;5.70;3.35;;;27.20;99.90;;;;;;5044472;28;20052;-74
2021/09/14 08:53:34;;;;;;;9.20;3.47;;;27.70;99.90;;;;;;5043040;28;20428;-74
2021/09/14 08:56:02;;;;;;;9.93;3.22;;;27.80;99.90;;;;;;5041906;28;20520;-74
2021/09/14 08:58:30;;;;;;;7.07;3.28;;;28.10;99.90;;;;;;5044651;28;20079;-74
2021/09/14 09:00:57;;;;;;;5.85;3.17;;;28.70;99.90;;;;;;5038159;28;20190;-74
2021/09/14 09:03:27;;;;;;;6.90;3.08;;;29.30;99.90;;;;;;5040714;28;20121;-74
2021/09/14 09:05:56;;;;;;;10.30;3.55;;;28.50;99.90;;;;;;5039661;28;20428;-74
2021/09/14 09:08:25;;;;;;;6.07;3.08;;;27.90;99.90;;;;;;5041371;28;20075;-74
2021/09/14 09:11:04;;;;;;;10.40;3.30;;;28.20;99.90;;;;;;5040601;28;20076;-74
2021/09/14 09:13:33;;;;;;;7.55;3.10;;;28.60;99.90;;;;;;5040652;28;21657;-74
2021/09/14 09:16:00;;;;;;;7.88;3.42;;;28.20;99.90;;;;;;5034987;28;20057;-74
2021/09/14 09:18:28;;;;;;;5.75;3.15;;;27.90;99.90;;;;;;5039307;28;20564;-74
2021/09/14 09:21:02;;;;;;;8.75;3.55;;;28.30;99.90;;;;;;5030935;28;20059;-74
2021/09/14 09:23:30;;;;;;;5.75;3.45;;;28.30;99.90;;;;;;5037059;28;21129;-74
2021/09/14 09:26:08;;;;;;;5.78;2.78;;;29.50;99.90;;;;;;5033542;28;20036;-75
2021/09/14 09:28:37;;;;;;;10.07;3.20;;;30.90;99.90;;;;;;5034044;28;20052;-74
2021/09/14 09:31:09;;;;;;;5.63;3.22;;;29.70;99.90;;;;;;5035834;28;20129;-74
2021/09/14 09:33:37;;;;;;;7.70;3.33;;;29.60;99.90;;;;;;5033938;28;20429;-75
2021/09/14 09:36:06;;;;;;;6.47;3.15;;;29.70;99.90;;;;;;5031187;28;20044;-74
2021/09/14 09:38:46;;;;;;;6.22;3.40;;;29.20;99.90;;;;;;5033532;28;20072;-74
2021/09/14 09:41:17;;;;;;;6.85;3.40;;;28.70;99.90;;;;;;5033343;28;20049;-74
2021/09/14 09:43:47;;;;;;;5.63;3.40;;;28.70;99.90;;;;;;5039849;28;20299;-74
2021/09/14 09:46:18;;;;;;;6.45;3.55;;;28.40;99.90;;;;;;5038873;28;20109;-74
2021/09/14 09:48:46;;;;;;;5.35;3.53;;;28.90;99.90;;;;;;5042817;28;20063;-74
2021/09/14 09:51:13;;;;;;;4.63;3.13;;;28.20;99.90;;;;;;5042199;28;20615;-74
2021/09/14 09:53:40;;;;;;;6.18;3.33;;;30.00;99.90;;;;;;5040177;28;20118;-74
2021/09/14 09:56:08;;;;;;;6.90;3.47;;;29.50;99.90;;;;;;5041962;28;20049;-74
2021/09/14 09:58:35;;;;;;;4.78;3.08;;;30.10;99.90;;;;;;5042248;28;20048;-74
2021/09/14 10:01:09;;;;;;;7.28;3.25;;;29.60;99.90;;;;;;5041639;28;20109;-75
2021/09/14 10:03:46;;;;;;;6.13;3.65;;;29.40;99.90;;;;;;5044353;28;20045;-74
2021/09/14 10:06:14;;;;;;;6.82;3.30;;;31.30;99.90;;;;;;5040601;28;20045;-75
2021/09/14 10:08:42;;;;;;;6.63;3.67;;;31.00;99.90;;;;;;5041557;28;20110;-74
2021/09/14 10:11:09;;;;;;;8.02;3.63;;;30.00;99.90;;;;;;5041560;28;20044;-74
2021/09/14 10:13:38;;;;;;;7.70;3.67;;;29.60;99.90;;;;;;5040269;28;20088;-75
2021/09/14 10:16:09;;;;;;;6.82;3.83;;;29.90;99.90;;;;;;5039593;28;20052;-75
2021/09/14 10:18:38;;;;;;;8.20;3.63;;;30.90;99.90;;;;;;5042575;28;20073;-75
2021/09/14 10:21:05;;;;;;;5.03;3.75;;;32.10;99.90;;;;;;5042031;28;20508;-75
2021/09/14 10:23:35;;;;;;;6.20;3.38;;;31.70;99.90;;;;;;5042717;28;20111;-75
2021/09/14 10:26:04;;;;;;;5.95;3.38;;;32.10;99.90;;;;;;5042057;28;20149;-75
2021/09/14 10:28:43;;;;;;;6.50;3.28;;;32.00;99.90;;;;;;5043879;28;20048;-75
2021/09/14 10:31:22;;;;;;;7.28;3.75;;;32.60;99.90;;;;;;5042179;28;20049;-75
2021/09/14 10:34:01;;;;;;;6.75;3.40;;;31.00;99.90;;;;;;5044361;28;20223;-75
2021/09/14 10:36:28;;;;;;;7.40;3.67;;;32.30;99.90;;;;;;5042960;28;20088;-75
2021/09/14 10:38:55;;;;;;;5.70;3.70;;;31.40;99.90;;;;;;5044303;28;20044;-74
2021/09/14 10:41:22;;;;;;;6.63;3.85;;;29.90;99.90;;;;;;5048107;28;20080;-75
2021/09/14 10:43:57;;;;;;;13.73;3.92;;;30.00;99.90;;;;;;5046495;28;20087;-74
2021/09/14 10:46:26;;;;;;;7.82;3.85;;;31.30;99.90;;;;;;5046381;28;20052;-74
2021/09/14 10:48:53;;;;;;;9.45;3.95;;;31.00;99.90;;;;;;5046401;28;20075;-75
2021/09/14 10:51:21;;;;;;;8.57;3.95;;;31.50;99.90;;;;;;5046820;28;20308;-74
2021/09/14 10:53:55;;;;;;;5.60;3.72;;;30.80;99.90;;;;;;5045599;28;20105;-74
2021/09/14 10:56:23;;;;;;;6.60;3.72;;;31.20;99.90;;;;;;5045698;28;20497;-74
2021/09/14 10:58:50;;;;;;;5.50;3.92;;;32.70;99.90;;;;;;5041828;28;20055;-74
2021/09/14 11:01:24;;;;;;;11.63;3.78;;;30.60;99.90;;;;;;5046256;28;20044;-74
2021/09/14 11:04:05;;;;;;;6.65;3.80;;;32.20;99.90;;;;;;5048017;28;20060;-74
2021/09/14 11:06:32;;;;;;;6.13;3.17;;;33.60;99.90;;;;;;5044883;28;20527;-75
2021/09/14 11:09:00;;;;;;;5.93;3.70;;;34.10;99.90;;;;;;5046938;28;20052;-75
2021/09/14 11:11:28;;;;;;;10.63;4.47;;;35.00;99.90;;;;;;5048277;28;20095;-74
2021/09/14 11:13:55;;;;;;;5.75;3.75;;;33.00;99.60;;;;;;5043953;28;20178;-75
2021/09/14 11:16:23;;;;;;;7.45;3.80;;;34.70;98.70;;;;;;5044249;28;20127;-75
2021/09/14 11:18:50;;;;;;;6.75;3.95;;;33.80;98.70;;;;;;5045308;28;20083;-74
2021/09/14 11:21:20;;;;;;;5.70;3.55;;;33.00;99.90;;;;;;5044193;28;20107;-74
2021/09/14 11:23:49;;;;;;;6.22;3.65;;;33.90;99.70;;;;;;5045756;28;20477;-74
2021/09/14 11:26:17;;;;;;;7.30;3.70;;;33.50;99.00;;;;;;5041809;28;20494;-74
2021/09/14 11:28:55;;;;;;;7.05;3.80;;;34.10;98.60;;;;;;5043837;28;20106;-75
2021/09/14 11:31:22;;;;;;;5.97;3.42;;;34.80;99.10;;;;;;5042719;28;20060;-75
2021/09/14 11:33:50;;;;;;;7.72;3.42;;;34.70;98.60;;;;;;5043273;28;20135;-75
2021/09/14 11:36:18;;;;;;;4.97;3.47;;;34.50;97.20;;;;;;5041723;28;20060;-75
2021/09/14 11:38:47;;;;;;;5.22;3.08;;;33.50;97.90;;;;;;5041239;28;20129;-75
2021/09/14 11:41:14;;;;;;;9.23;3.72;;;35.50;97.30;;;;;;5043512;28;20130;-75
2021/09/14 11:43:43;;;;;;;5.05;3.53;;;34.30;96.10;;;;;;5042974;28;20136;-74
2021/09/14 11:46:15;;;;;;;5.28;3.75;;;33.90;96.90;;;;;;5043038;28;20080;-75
2021/09/14 11:48:53;;;;;;;7.93;3.90;;;36.00;96.20;;;;;;5044094;28;20392;-74
2021/09/14 11:51:23;;;;;;;6.72;3.72;;;36.00;94.60;;;;;;5043631;28;20040;-74
2021/09/14 11:53:51;;;;;;;5.78;3.58;;;34.80;95.70;;;;;;5036564;28;20133;-75
2021/09/14 11:56:20;;;;;;;6.70;3.15;;;35.20;95.70;;;;;;5038707;28;20509;-74
2021/09/14 11:58:49;;;;;;;10.77;3.58;;;33.80;95.60;;;;;;5043937;28;20052;-75
2021/09/14 12:01:18;;;;;;;9.32;3.55;;;33.40;95.50;;;;;;5041783;28;20134;-75
2021/09/14 12:03:48;;;;;;;4.07;3.17;;;33.30;96.20;;;;;;5044354;28;20101;-75
2021/09/14 12:06:24;;;;;;;7.35;3.97;;;32.60;95.70;;;;;;5042841;28;20408;-74
2021/09/14 12:08:51;;;;;;;5.95;3.92;;;32.80;96.40;;;;;;5044387;28;20382;-75
2021/09/14 12:11:27;;;;;;;6.35;3.75;;;34.10;95.30;;;;;;5043917;28;20473;-75
2021/09/14 12:13:55;;;;;;;;;;;32.70;95.40;;;;;;5043580;28;20172;-75
2021/09/14 12:16:26;;;;;;;6.43;3.55;;;32.30;96.00;;;;;;5042731;28;20015;-74
2021/09/14 12:18:53;;;;;;;8.20;3.78;;;32.00;96.00;;;;;;5043234;28;20044;-75
2021/09/14 12:21:19;;;;;;;7.35;3.60;;;32.90;95.50;;;;;;5038192;28;20102;-75
2021/09/14 12:23:48;;;;;;;5.97;3.90;;;32.90;95.80;;;;;;5037927;28;20084;-75
2021/09/14 12:26:20;;;;;;;9.68;4.15;;;32.70;95.00;;;;;;5040065;28;20051;-74
2021/09/14 12:28:47;;;;;;;5.57;3.85;;;31.30;96.50;;;;;;5041031;28;20648;-75
2021/09/14 12:31:14;;;;;;;6.93;4.18;;;30.00;96.20;;;;;;5040462;28;20049;-74
2021/09/14 12:33:41;;;;;;;5.70;3.95;;;30.10;97.70;;;;;;5039878;28;20384;-74
2021/09/14 12:36:10;;;;;;;7.88;4.00;;;29.70;98.30;;;;;;5037739;28;20083;-74
2021/09/14 12:38:37;;;;;;;6.65;4.25;;;29.30;98.50;;;;;;5037631;28;20134;-74
2021/09/14 12:41:06;;;;;;;7.43;3.75;;;30.10;98.70;;;;;;5037215;28;20132;-75
2021/09/14 12:43:33;;;;;;;7.30;3.70;;;30.70;97.40;;;;;;5039116;28;20052;-75
2021/09/14 12:46:00;;;;;;;6.53;3.80;;;31.40;97.40;;;;;;5039714;28;20465;-75
2021/09/14 12:48:27;;;;;;;6.47;3.92;;;31.60;96.30;;;;;;5037938;28;20106;-74
2021/09/14 12:50:55;;;;;;;6.65;4.15;;;31.00;97.00;;;;;;5038413;28;20060;-74
2021/09/14 12:53:22;;;;;;;6.97;4.20;;;31.60;97.10;;;;;;5042363;28;20160;-74
2021/09/14 12:55:49;;;;;;;5.88;3.95;;;31.40;96.40;;;;;;5037994;28;20102;-74
2021/09/14 12:58:17;;;;;;;4.75;3.60;;;30.90;97.10;;;;;;5041726;28;20080;-74
2021/09/14 13:00:44;;;;;;;7.28;4.22;;;31.00;96.80;;;;;;5043269;28;20054;-74
2021/09/14 13:03:13;;;;;;;7.55;4.10;;;30.50;97.60;;;;;;5044269;28;20574;-74
2021/09/14 13:05:40;;;;;;;6.72;3.33;;;30.90;97.70;;;;;;5038449;28;20063;-75
2021/09/14 13:08:08;;;;;;;5.72;3.55;;;32.00;97.10;;;;;;5042384;28;20072;-75
2021/09/14 13:10:35;;;;;;;6.47;3.95;;;32.30;96.20;;;;;;5045769;28;20153;-75
2021/09/14 13:18:33;;;;;;;9.18;3.78;;;31.80;96.40;;;;;;5036298;28;20057;-75
2021/09/14 13:21:01;;;;;;;6.72;3.88;;;31.60;96.40;;;;;;5037736;28;20101;-75
2021/09/14 13:23:28;;;;;;;7.72;4.47;;;32.00;96.20;;;;;;5042904;28;20090;-75
2021/09/14 13:25:55;;;;;;;6.35;4.10;;;32.70;95.50;;;;;;5040501;28;20056;-74
2021/09/14 13:28:22;;;;;;;6.85;3.50;;;30.50;96.80;;;;;;5030132;28;20049;-75
2021/09/14 13:30:50;;;;;;;7.65;4.32;;;30.00;97.30;;;;;;5039464;28;20101;-74
2021/09/14 13:33:17;;;;;;;7.35;4.05;;;29.70;97.50;;;;;;5037881;28;20115;-75
2021/09/14 13:35:44;;;;;;;5.40;3.75;;;30.50;97.10;;;;;;5039788;28;20071;-74
2021/09/14 13:38:11;;;;;;;5.38;3.85;;;30.60;96.20;;;;;;5040467;28;20072;-74
2021/09/14 13:40:41;;;;;;;6.78;4.03;;;31.00;96.50;;;;;;5038404;28;20056;-75
2021/09/14 13:43:08;;;;;;;8.23;4.35;;;31.20;96.70;;;;;;5039351;28;20045;-78
2021/09/14 13:48:24;;;;;;;6.97;3.97;;;31.40;96.00;;;;;;5041930;28;20129;-78